createdAt,value
2023-01-17T00:00:54.625Z,53.33
2023-01-17T00:01:56.909Z,53.26
2023-01-17T00:02:59.143Z,53.22
2023-01-17T00:04:20.377Z,53.35
2023-01-17T00:05:41.196Z,53.51
2023-01-17T00:07:01.929Z,53.47
2023-01-17T00:08:23.016Z,53.38
2023-01-17T00:09:43.802Z,53.48
2023-01-17T00:10:45.964Z,53.51
2023-01-17T00:11:48.211Z,53.50
2023-01-17T00:13:00.826Z,53.52
2023-01-17T00:14:03.006Z,53.61
2023-01-17T00:15:06.258Z,53.54
2023-01-17T00:16:08.573Z,53.66
2023-01-17T00:17:10.851Z,53.61
2023-01-17T00:18:13.036Z,53.63
2023-01-17T00:19:33.726Z,53.61
2023-01-17T00:20:54.405Z,53.81
2023-01-17T00:22:15.091Z,53.71
2023-01-17T00:23:55.999Z,53.62
2023-01-17T00:25:16.865Z,53.65
2023-01-17T00:26:19.761Z,53.66
2023-01-17T00:27:23.856Z,53.60
2023-01-17T00:28:27.086Z,53.77
2023-01-17T00:29:29.183Z,53.80
2023-01-17T00:30:32.158Z,53.65
2023-01-17T00:31:34.386Z,53.75
2023-01-17T00:32:36.579Z,53.76
2023-01-17T00:33:41.454Z,53.75
2023-01-17T00:34:43.548Z,53.83
2023-01-17T00:35:45.809Z,53.80
2023-01-17T00:36:47.954Z,53.89
2023-01-17T00:38:00.858Z,53.84
2023-01-17T00:39:02.993Z,53.82
2023-01-17T00:40:05.631Z,53.79
2023-01-17T00:41:14.463Z,54.02
2023-01-17T00:42:16.631Z,54.02
2023-01-17T00:43:41.623Z,54.09
2023-01-17T00:45:02.251Z,54.09
2023-01-17T00:46:24.647Z,54.16
2023-01-17T00:47:45.386Z,54.04
2023-01-17T00:49:07.008Z,53.98
2023-01-17T00:50:28.337Z,54.17
2023-01-17T00:51:51.336Z,54.06
2023-01-17T00:53:11.834Z,54.25
2023-01-17T00:54:33.699Z,54.21
2023-01-17T00:55:54.599Z,54.29
2023-01-17T00:57:15.347Z,54.33
2023-01-17T00:58:35.846Z,54.35
2023-01-17T00:59:57.024Z,54.32
2023-01-17T01:01:17.996Z,54.48
2023-01-17T01:02:39.112Z,54.35
2023-01-17T01:04:00.443Z,54.44
2023-01-17T01:05:21.384Z,54.40
2023-01-17T01:06:42.039Z,54.46
2023-01-17T01:08:02.946Z,54.38
2023-01-17T01:09:23.966Z,54.54
2023-01-17T01:10:44.730Z,54.54
2023-01-17T01:12:05.326Z,54.64
2023-01-17T01:13:26.309Z,54.52
2023-01-17T01:14:47.234Z,54.51
2023-01-17T01:16:08.265Z,54.56
2023-01-17T01:17:28.919Z,54.50
2023-01-17T01:18:49.608Z,54.59
2023-01-17T01:20:10.900Z,54.33
2023-01-17T01:21:31.903Z,54.45
2023-01-17T01:22:52.653Z,54.41
2023-01-17T01:24:13.377Z,54.53
2023-01-17T01:25:33.970Z,54.43
2023-01-17T01:26:54.661Z,54.42
2023-01-17T01:28:30.928Z,54.30
2023-01-17T01:29:51.668Z,54.45
2023-01-17T01:31:12.311Z,54.25
2023-01-17T01:32:32.972Z,54.20
2023-01-17T01:33:35.603Z,54.20
2023-01-17T01:34:37.747Z,54.29
2023-01-17T01:35:41.984Z,54.18
2023-01-17T01:36:44.193Z,54.05
2023-01-17T01:37:46.438Z,54.15
2023-01-17T01:38:50.373Z,54.08
2023-01-17T01:39:52.619Z,54.13
2023-01-17T01:40:56.701Z,54.11
2023-01-17T01:41:58.854Z,53.91
2023-01-17T01:43:03.191Z,54.00
2023-01-17T01:44:05.551Z,54.01
2023-01-17T01:45:20.682Z,53.80
2023-01-17T01:46:29.623Z,53.83
2023-01-17T01:47:40.831Z,53.74
2023-01-17T01:49:01.734Z,53.72
2023-01-17T01:50:08.956Z,53.64
2023-01-17T01:51:15.973Z,53.63
2023-01-17T01:52:20.544Z,53.63
2023-01-17T01:53:23.184Z,53.50
2023-01-17T01:54:42.917Z,53.50
2023-01-17T01:55:49.685Z,53.57
2023-01-17T01:56:54.268Z,53.43
2023-01-17T01:58:04.472Z,53.45
2023-01-17T01:59:11.340Z,53.24
2023-01-17T02:00:23.701Z,53.22
2023-01-17T02:01:25.972Z,53.15
2023-01-17T02:02:31.024Z,53.19
2023-01-17T02:03:34.232Z,53.03
2023-01-17T02:04:37.424Z,53.20
2023-01-17T02:05:43.710Z,53.07
2023-01-17T02:06:49.221Z,52.91
2023-01-17T02:08:13.490Z,52.79
2023-01-17T02:09:18.420Z,52.81
2023-01-17T02:10:21.353Z,52.77
2023-01-17T02:11:23.611Z,52.78
2023-01-17T02:12:27.075Z,52.55
2023-01-17T02:13:29.349Z,52.58
2023-01-17T02:14:31.571Z,52.50
2023-01-17T02:15:49.766Z,52.49
2023-01-17T02:17:29.799Z,52.53
2023-01-17T02:18:40.249Z,52.31
2023-01-17T02:20:00.769Z,52.30
2023-01-17T02:21:10.257Z,52.16
2023-01-17T02:22:34.461Z,52.21
2023-01-17T02:24:14.524Z,52.26
2023-01-17T02:26:01.815Z,52.08
2023-01-17T02:27:27.576Z,52.09
2023-01-17T02:29:06.960Z,52.04
2023-01-17T02:30:32.986Z,51.75
2023-01-17T02:31:58.193Z,51.79
2023-01-17T02:33:05.895Z,51.72
2023-01-17T02:34:28.617Z,51.57
2023-01-17T02:35:56.889Z,51.75
2023-01-17T02:37:11.883Z,51.58
2023-01-17T02:38:35.383Z,51.55
2023-01-17T02:39:42.951Z,51.66
2023-01-17T02:41:01.635Z,51.46
2023-01-17T02:42:12.843Z,51.55
2023-01-17T02:43:17.702Z,51.47
2023-01-17T02:44:20.856Z,51.35
2023-01-17T02:45:23.224Z,51.43
2023-01-17T02:46:25.451Z,51.29
2023-01-17T02:47:30.147Z,51.11
2023-01-17T02:48:36.433Z,51.03
2023-01-17T02:49:38.576Z,51.04
2023-01-17T02:51:07.617Z,50.90
2023-01-17T02:52:36.593Z,50.87
2023-01-17T02:54:16.228Z,50.92
2023-01-17T02:55:47.920Z,50.91
2023-01-17T02:57:14.952Z,50.72
2023-01-17T02:58:29.215Z,50.71
2023-01-17T02:59:47.560Z,50.69
2023-01-17T03:01:14.648Z,50.50
2023-01-17T03:02:40.187Z,50.52
2023-01-17T03:04:10.041Z,50.31
2023-01-17T03:05:25.183Z,50.47
2023-01-17T03:06:39.776Z,50.30
2023-01-17T03:07:44.469Z,50.26
2023-01-17T03:08:49.892Z,50.29
2023-01-17T03:09:59.537Z,50.23
2023-01-17T03:11:02.595Z,50.25
2023-01-17T03:12:05.743Z,50.14
2023-01-17T03:13:07.896Z,50.10
2023-01-17T03:14:10.089Z,50.12
2023-01-17T03:15:14.937Z,50.24
2023-01-17T03:16:19.941Z,50.24
2023-01-17T03:17:25.704Z,50.09
2023-01-17T03:18:27.930Z,50.05
2023-01-17T03:19:31.441Z,50.13
2023-01-17T03:20:33.740Z,50.13
2023-01-17T03:21:36.160Z,50.12
2023-01-17T03:22:38.495Z,49.92
2023-01-17T03:23:40.843Z,50.01
2023-01-17T03:24:43.073Z,50.02
2023-01-17T03:25:45.313Z,50.00
2023-01-17T03:26:48.039Z,49.93
2023-01-17T03:27:50.416Z,49.94
2023-01-17T03:28:52.597Z,49.92
2023-01-17T03:29:54.834Z,49.98
2023-01-17T03:30:57.094Z,49.91
2023-01-17T03:31:59.322Z,49.76
2023-01-17T03:33:01.546Z,49.79
2023-01-17T03:34:03.690Z,49.71
2023-01-17T03:35:06.401Z,49.78
2023-01-17T03:36:08.829Z,49.75
2023-01-17T03:37:11.099Z,49.78
2023-01-17T03:38:13.693Z,49.77
2023-01-17T03:39:15.876Z,49.84
2023-01-17T03:40:18.080Z,49.74
2023-01-17T03:41:20.286Z,49.67
2023-01-17T03:42:22.462Z,49.71
2023-01-17T03:43:24.656Z,49.75
2023-01-17T03:44:26.856Z,49.65
2023-01-17T03:45:29.130Z,49.74
2023-01-17T03:46:32.670Z,49.71
2023-01-17T03:47:36.395Z,49.75
2023-01-17T03:48:40.991Z,49.75
2023-01-17T03:54:00.865Z,49.83
2023-01-17T03:55:05.682Z,49.69
2023-01-17T03:56:08.203Z,49.68
2023-01-17T03:57:10.360Z,49.56
2023-01-17T03:58:12.649Z,49.72
2023-01-17T03:59:17.159Z,49.69
2023-01-17T04:00:20.909Z,49.63
2023-01-17T04:01:23.168Z,49.58
2023-01-17T04:02:26.019Z,49.65
2023-01-17T04:03:28.212Z,49.66
2023-01-17T04:04:30.418Z,49.57
2023-01-17T04:05:32.576Z,49.64
2023-01-17T04:06:34.896Z,49.74
2023-01-17T04:07:37.099Z,49.61
2023-01-17T04:08:40.541Z,49.52
2023-01-17T04:09:42.904Z,49.53
2023-01-17T04:10:45.081Z,49.63
2023-01-17T04:11:50.928Z,49.41
2023-01-17T04:12:53.337Z,49.68
2023-01-17T04:13:55.558Z,49.74
2023-01-17T04:14:57.762Z,49.67
2023-01-17T04:16:10.316Z,49.71
2023-01-17T04:17:12.839Z,49.72
2023-01-17T04:18:17.355Z,49.68
2023-01-17T04:19:20.228Z,49.74
2023-01-17T04:20:30.986Z,49.66
2023-01-17T04:21:33.186Z,49.62
2023-01-17T04:22:35.912Z,49.58
2023-01-17T04:23:38.130Z,49.76
2023-01-17T04:24:40.343Z,49.62
2023-01-17T04:25:42.550Z,49.59
2023-01-17T04:26:45.167Z,49.79
2023-01-17T04:27:47.317Z,49.64
2023-01-17T04:28:49.723Z,49.64
2023-01-17T04:29:51.965Z,49.69
2023-01-17T04:30:58.954Z,49.58
2023-01-17T04:32:01.184Z,49.66
2023-01-17T04:33:03.510Z,49.64
2023-01-17T04:34:05.692Z,49.64
2023-01-17T04:35:09.863Z,49.52
2023-01-17T04:36:13.244Z,49.58
2023-01-17T04:37:15.452Z,49.59
2023-01-17T04:38:17.646Z,49.58
2023-01-17T04:39:19.931Z,49.43
2023-01-17T04:40:22.170Z,49.41
2023-01-17T04:41:24.365Z,49.54
2023-01-17T04:42:26.529Z,49.65
2023-01-17T04:43:28.747Z,49.60
2023-01-17T04:44:30.947Z,49.63
2023-01-17T04:45:33.162Z,49.60
2023-01-17T04:46:35.336Z,49.61
2023-01-17T04:47:37.520Z,49.50
2023-01-17T04:48:42.324Z,49.55
2023-01-17T04:49:44.494Z,49.40
2023-01-17T04:50:46.651Z,49.39
2023-01-17T04:51:48.850Z,49.59
2023-01-17T04:53:53.315Z,49.35
2023-01-17T04:54:55.533Z,49.51
2023-01-17T04:55:58.234Z,49.48
2023-01-17T04:57:00.423Z,49.51
2023-01-17T04:58:02.817Z,49.49
2023-01-17T04:59:05.201Z,49.44
2023-01-17T05:00:10.684Z,49.34
2023-01-17T05:01:13.024Z,49.42
2023-01-17T05:02:15.302Z,49.39
2023-01-17T05:03:21.934Z,49.44
2023-01-17T05:04:24.331Z,49.42
2023-01-17T05:06:28.985Z,49.33
2023-01-17T05:07:31.230Z,49.28
2023-01-17T05:08:33.429Z,49.25
2023-01-17T05:09:35.678Z,49.32
2023-01-17T05:10:37.911Z,49.30
2023-01-17T05:11:40.118Z,49.33
2023-01-17T05:12:42.299Z,49.32
2023-01-17T05:13:44.531Z,49.26
2023-01-17T05:14:46.764Z,49.33
2023-01-17T05:15:49.153Z,49.35
2023-01-17T05:16:53.736Z,49.27
2023-01-17T05:17:56.655Z,49.39
2023-01-17T05:18:58.902Z,49.26
2023-01-17T05:20:02.422Z,49.16
2023-01-17T05:21:05.604Z,49.11
2023-01-17T05:22:15.244Z,49.24
2023-01-17T05:23:17.655Z,49.13
2023-01-17T05:24:20.995Z,49.16
2023-01-17T05:25:30.915Z,49.09
2023-01-17T05:26:33.073Z,48.97
2023-01-17T05:27:35.546Z,49.17
2023-01-17T05:28:37.799Z,48.88
2023-01-17T05:29:42.359Z,48.99
2023-01-17T05:30:44.705Z,48.99
2023-01-17T05:31:46.987Z,48.89
2023-01-17T05:32:53.327Z,48.84
2023-01-17T05:33:58.656Z,48.87
2023-01-17T05:35:02.629Z,48.93
2023-01-17T05:36:05.168Z,48.93
2023-01-17T05:37:07.960Z,48.92
2023-01-17T05:38:10.135Z,48.87
2023-01-17T05:39:12.275Z,48.90
2023-01-17T05:40:15.869Z,48.88
2023-01-17T05:41:18.046Z,48.93
2023-01-17T05:42:20.287Z,48.87
2023-01-17T05:43:23.222Z,48.81
2023-01-17T05:44:27.610Z,48.74
2023-01-17T05:45:31.970Z,48.82
2023-01-17T05:46:34.258Z,48.63
2023-01-17T05:47:36.395Z,48.71
2023-01-17T05:48:38.556Z,48.65
2023-01-17T05:49:43.893Z,48.62
2023-01-17T05:50:48.075Z,48.72
2023-01-17T05:51:50.465Z,48.69
2023-01-17T05:52:57.953Z,48.74
2023-01-17T05:54:00.133Z,48.77
2023-01-17T05:55:02.346Z,48.67
2023-01-17T05:56:04.781Z,48.63
2023-01-17T05:57:06.921Z,48.63
2023-01-17T05:58:18.037Z,48.57
2023-01-17T05:59:28.709Z,48.67
2023-01-17T06:00:38.693Z,48.68
2023-01-17T06:01:40.920Z,48.53
2023-01-17T06:02:43.856Z,48.69
2023-01-17T06:03:46.134Z,48.66
2023-01-17T06:04:48.741Z,48.73
2023-01-17T06:05:51.203Z,48.72
2023-01-17T06:06:53.380Z,48.69
2023-01-17T06:07:56.700Z,48.77
2023-01-17T06:08:58.988Z,48.65
2023-01-17T06:10:01.229Z,48.68
2023-01-17T06:11:03.491Z,48.75
2023-01-17T06:12:06.814Z,48.71
2023-01-17T06:13:12.609Z,48.78
2023-01-17T06:14:14.914Z,48.67
2023-01-17T06:15:18.807Z,48.73
2023-01-17T06:16:21.089Z,48.84
2023-01-17T06:17:23.401Z,48.91
2023-01-17T06:18:25.607Z,48.96
2023-01-17T06:19:30.063Z,48.98
2023-01-17T06:20:33.445Z,48.89
2023-01-17T06:21:35.650Z,48.94
2023-01-17T06:22:37.862Z,48.93
2023-01-17T06:23:40.024Z,48.78
2023-01-17T06:24:42.242Z,48.83
2023-01-17T06:25:47.231Z,48.91
2023-01-17T06:26:49.508Z,48.91
2023-01-17T06:27:54.422Z,48.94
2023-01-17T06:28:56.574Z,48.90
2023-01-17T06:29:58.774Z,48.86
2023-01-17T06:31:06.042Z,48.82
2023-01-17T06:32:08.339Z,48.93
2023-01-17T06:33:11.159Z,48.99
2023-01-17T06:34:13.323Z,48.94
2023-01-17T06:35:15.547Z,48.84
2023-01-17T06:36:20.236Z,48.85
2023-01-17T06:37:22.460Z,48.92
2023-01-17T06:38:24.627Z,48.98
2023-01-17T06:39:26.791Z,48.95
2023-01-17T06:40:30.919Z,48.89
2023-01-17T06:41:33.238Z,48.96
2023-01-17T06:42:35.740Z,49.01
2023-01-17T06:43:38.116Z,49.00
2023-01-17T06:44:40.283Z,48.89
2023-01-17T06:45:42.495Z,48.88
2023-01-17T06:46:45.272Z,48.93
2023-01-17T06:47:47.555Z,48.98
2023-01-17T06:48:50.389Z,48.95
2023-01-17T06:49:52.763Z,48.70
2023-01-17T06:50:55.079Z,48.90
2023-01-17T06:51:57.287Z,48.87
2023-01-17T06:53:06.017Z,48.80
2023-01-17T06:54:08.769Z,48.73
2023-01-17T06:55:11.008Z,48.75
2023-01-17T06:56:13.218Z,49.00
2023-01-17T06:57:15.375Z,49.01
2023-01-17T06:58:17.646Z,49.06
2023-01-17T06:59:20.733Z,48.94
2023-01-17T07:00:23.098Z,49.03
2023-01-17T07:01:25.497Z,48.96
2023-01-17T07:02:27.794Z,49.01
2023-01-17T07:03:30.198Z,49.01
2023-01-17T07:04:38.491Z,49.04
2023-01-17T07:05:41.662Z,48.93
2023-01-17T07:06:43.837Z,48.95
2023-01-17T07:07:46.622Z,49.12
2023-01-17T07:08:49.133Z,49.01
2023-01-17T07:09:54.514Z,49.06
2023-01-17T07:11:01.895Z,48.95
2023-01-17T07:12:04.306Z,48.92
2023-01-17T07:13:06.533Z,48.86
2023-01-17T07:14:12.875Z,49.00
2023-01-17T07:15:15.144Z,49.03
2023-01-17T07:16:17.498Z,48.99
2023-01-17T07:17:19.816Z,48.99
2023-01-17T07:18:23.603Z,48.94
2023-01-17T07:19:25.998Z,48.89
2023-01-17T07:20:28.404Z,48.75
2023-01-17T07:21:30.705Z,48.81
2023-01-17T07:22:32.957Z,48.79
2023-01-17T07:23:35.284Z,48.81
2023-01-17T07:24:37.770Z,48.88
2023-01-17T07:25:40.035Z,48.94
2023-01-17T07:26:42.231Z,48.88
2023-01-17T07:27:44.393Z,48.86
2023-01-17T07:28:46.603Z,48.86
2023-01-17T07:29:48.878Z,48.81
2023-01-17T07:30:51.430Z,48.72
2023-01-17T07:31:53.596Z,48.89
2023-01-17T07:32:56.385Z,48.81
2023-01-17T07:34:01.676Z,48.77
2023-01-17T07:35:04.419Z,48.71
2023-01-17T07:36:08.122Z,48.75
2023-01-17T07:37:10.320Z,48.74
2023-01-17T07:38:22.846Z,48.79
2023-01-17T07:39:25.119Z,48.79
2023-01-17T07:40:27.376Z,48.79
2023-01-17T07:41:34.720Z,48.74
2023-01-17T07:42:51.642Z,48.77
2023-01-17T07:43:56.192Z,48.83
2023-01-17T07:45:00.704Z,48.82
2023-01-17T07:46:07.327Z,48.92
2023-01-17T07:47:09.911Z,48.94
2023-01-17T07:48:12.796Z,49.16
2023-01-17T07:49:17.257Z,49.02
2023-01-17T07:50:19.463Z,49.22
2023-01-17T07:51:31.992Z,48.93
2023-01-17T07:52:34.271Z,48.92
2023-01-17T07:53:36.692Z,49.10
2023-01-17T07:54:38.962Z,49.00
2023-01-17T07:55:41.156Z,48.95
2023-01-17T07:56:47.158Z,48.95
2023-01-17T07:57:50.899Z,49.01
2023-01-17T07:58:53.051Z,49.02
2023-01-17T07:59:55.209Z,48.97
2023-01-17T08:01:04.437Z,49.05
2023-01-17T08:02:15.150Z,48.99
2023-01-17T08:03:20.672Z,49.04
2023-01-17T08:04:26.312Z,49.10
2023-01-17T08:05:32.007Z,48.80
2023-01-17T08:06:34.269Z,48.90
2023-01-17T08:07:36.608Z,49.09
2023-01-17T08:08:38.781Z,49.04
2023-01-17T08:09:42.378Z,49.07
2023-01-17T08:10:44.546Z,49.04
2023-01-17T08:11:46.719Z,49.00
2023-01-17T08:12:52.655Z,48.98
2023-01-17T08:13:59.503Z,49.22
2023-01-17T08:15:01.723Z,49.18
2023-01-17T08:16:04.260Z,49.23
2023-01-17T08:17:08.157Z,49.43
2023-01-17T08:18:10.388Z,49.27
2023-01-17T08:19:12.544Z,49.32
2023-01-17T08:20:17.366Z,49.32
2023-01-17T08:21:19.629Z,49.39
2023-01-17T08:22:22.543Z,49.16
2023-01-17T08:23:25.500Z,49.04
2023-01-17T08:24:27.733Z,49.02
2023-01-17T08:25:33.182Z,48.93
2023-01-17T08:26:38.508Z,48.80
2023-01-17T08:27:40.762Z,48.90
2023-01-17T08:28:42.961Z,48.88
2023-01-17T08:29:48.394Z,48.87
2023-01-17T08:30:54.213Z,48.57
2023-01-17T08:31:56.522Z,48.53
2023-01-17T08:32:58.712Z,48.45
2023-01-17T08:34:01.688Z,48.25
2023-01-17T08:35:06.350Z,48.05
2023-01-17T08:36:08.564Z,48.03
2023-01-17T08:37:10.730Z,48.04
2023-01-17T08:38:12.875Z,48.10
2023-01-17T08:39:15.160Z,48.16
2023-01-17T08:40:20.896Z,48.14
2023-01-17T08:41:24.189Z,48.02
2023-01-17T08:42:27.917Z,47.88
2023-01-17T08:43:30.113Z,47.73
2023-01-17T08:44:32.336Z,47.73
2023-01-17T08:45:34.665Z,47.58
2023-01-17T08:46:38.706Z,47.62
2023-01-17T08:47:41.003Z,47.44
2023-01-17T08:48:44.615Z,47.44
2023-01-17T08:49:46.855Z,47.44
2023-01-17T08:50:49.882Z,47.40
2023-01-17T08:51:52.858Z,47.59
2023-01-17T08:53:01.094Z,47.52
2023-01-17T08:54:03.750Z,47.55
2023-01-17T08:55:07.546Z,47.39
2023-01-17T08:56:09.809Z,47.20
2023-01-17T08:57:11.954Z,47.26
2023-01-17T08:58:14.309Z,47.19
2023-01-17T08:59:16.503Z,47.10
2023-01-17T09:00:21.360Z,47.08
2023-01-17T09:01:26.414Z,47.00
2023-01-17T09:02:31.148Z,47.06
2023-01-17T09:03:34.447Z,47.07
2023-01-17T09:04:37.147Z,46.65
2023-01-17T09:05:39.582Z,46.24
2023-01-17T09:06:45.546Z,46.06
2023-01-17T09:07:47.711Z,46.15
2023-01-17T09:08:52.160Z,45.68
2023-01-17T09:09:56.822Z,45.89
2023-01-17T09:10:59.076Z,45.95
2023-01-17T09:12:03.538Z,45.76
2023-01-17T09:13:06.977Z,45.49
2023-01-17T09:14:12.306Z,45.26
2023-01-17T09:15:17.901Z,45.01
2023-01-17T09:16:20.189Z,45.05
2023-01-17T09:17:22.409Z,45.15
2023-01-17T09:18:25.883Z,44.89
2023-01-17T09:19:28.458Z,44.57
2023-01-17T09:20:30.994Z,44.27
2023-01-17T09:21:33.194Z,44.12
2023-01-17T09:22:37.810Z,43.60
2023-01-17T09:23:40.499Z,43.72
2023-01-17T09:24:42.793Z,43.67
2023-01-17T09:25:45.235Z,43.95
2023-01-17T09:26:47.597Z,43.70
2023-01-17T09:27:50.403Z,43.24
2023-01-17T09:28:54.386Z,43.28
2023-01-17T09:29:56.546Z,42.72
2023-01-17T09:30:58.776Z,42.90
2023-01-17T09:32:04.237Z,42.66
2023-01-17T09:33:06.415Z,42.52
2023-01-17T09:34:08.769Z,42.48
2023-01-17T09:35:11.124Z,42.29
2023-01-17T09:36:13.439Z,42.47
2023-01-17T09:37:21.427Z,42.27
2023-01-17T09:38:23.938Z,42.25
2023-01-17T09:39:26.259Z,42.14
2023-01-17T09:40:28.568Z,42.07
2023-01-17T09:41:42.609Z,41.70
2023-01-17T09:42:46.040Z,41.64
2023-01-17T09:43:56.905Z,41.67
2023-01-17T09:44:59.385Z,41.00
2023-01-17T09:46:01.972Z,40.77
2023-01-17T09:47:17.795Z,40.58
2023-01-17T09:48:36.417Z,40.74
2023-01-17T09:49:43.979Z,40.45
2023-01-17T09:50:46.173Z,40.32
2023-01-17T09:51:48.444Z,40.27
2023-01-17T09:53:01.351Z,40.26
2023-01-17T09:54:03.877Z,40.04
2023-01-17T09:55:08.091Z,40.08
2023-01-17T09:56:35.347Z,40.28
2023-01-17T09:57:46.643Z,40.05
2023-01-17T09:59:08.659Z,39.90
2023-01-17T10:00:37.391Z,39.67
2023-01-17T10:02:05.803Z,39.44
2023-01-17T10:03:28.058Z,39.92
2023-01-17T10:04:52.113Z,39.50
2023-01-17T10:06:18.013Z,39.99
2023-01-17T10:07:43.119Z,39.53
2023-01-17T10:09:09.763Z,39.79
2023-01-17T10:10:47.672Z,40.09
2023-01-17T10:12:08.710Z,39.82
2023-01-17T10:13:32.887Z,39.84
2023-01-17T10:15:03.554Z,39.77
2023-01-17T10:16:28.136Z,39.89
2023-01-17T10:17:36.572Z,39.16
2023-01-17T10:18:57.447Z,39.09
2023-01-17T10:19:59.597Z,39.14
2023-01-17T10:21:30.956Z,39.31
2023-01-17T10:22:54.519Z,39.25
2023-01-17T10:24:03.804Z,39.20
2023-01-17T10:25:23.368Z,39.34
2023-01-17T10:26:29.848Z,39.55
2023-01-17T10:27:39.336Z,39.64
2023-01-17T10:28:48.922Z,39.70
2023-01-17T10:29:51.760Z,39.78
2023-01-17T10:31:08.153Z,39.53
2023-01-17T10:32:12.915Z,39.38
2023-01-17T10:33:21.118Z,39.41
2023-01-17T10:34:29.451Z,39.18
2023-01-17T10:35:37.607Z,39.17
2023-01-17T10:36:44.384Z,38.90
2023-01-17T10:37:49.129Z,38.81
2023-01-17T10:38:55.437Z,38.67
2023-01-17T10:40:12.167Z,38.76
2023-01-17T10:41:24.306Z,38.91
2023-01-17T10:42:32.091Z,38.74
2023-01-17T10:44:13.259Z,38.95
2023-01-17T10:45:20.855Z,38.96
2023-01-17T10:46:31.534Z,39.17
2023-01-17T10:47:37.794Z,39.23
2023-01-17T10:48:44.278Z,39.28
2023-01-17T10:49:49.207Z,39.40
2023-01-17T10:51:29.936Z,39.44
2023-01-17T10:52:52.911Z,39.35
2023-01-17T10:54:23.952Z,39.76
2023-01-17T10:55:47.624Z,39.50
2023-01-17T10:56:50.121Z,39.47
2023-01-17T10:57:53.460Z,39.57
2023-01-17T10:59:17.899Z,39.86
2023-01-17T11:00:33.980Z,39.73
2023-01-17T11:01:36.256Z,39.81
2023-01-17T11:02:53.123Z,39.92
2023-01-17T11:03:56.289Z,39.88
2023-01-17T11:05:03.558Z,40.06
2023-01-17T11:06:19.663Z,40.01
2023-01-17T11:07:26.209Z,40.02
2023-01-17T11:08:28.479Z,40.15
2023-01-17T11:09:41.844Z,40.22
2023-01-17T11:10:48.487Z,40.19
2023-01-17T11:11:51.617Z,40.36
2023-01-17T11:12:53.932Z,40.29
2023-01-17T11:13:59.772Z,40.25
2023-01-17T11:15:10.936Z,40.44
2023-01-17T11:16:21.997Z,40.49
2023-01-17T11:17:25.241Z,40.20
2023-01-17T11:18:34.430Z,40.20
2023-01-17T11:19:38.659Z,40.31
2023-01-17T11:20:45.069Z,40.30
2023-01-17T11:22:01.851Z,40.16
2023-01-17T11:23:16.338Z,40.11
2023-01-17T11:24:34.553Z,40.18
2023-01-17T11:25:37.680Z,40.18
2023-01-17T11:26:49.903Z,40.25
2023-01-17T11:28:26.613Z,40.50
2023-01-17T11:29:37.225Z,40.24
2023-01-17T11:30:52.058Z,40.03
2023-01-17T11:31:56.333Z,40.00
2023-01-17T11:33:06.276Z,39.70
2023-01-17T11:34:18.981Z,39.63
2023-01-17T11:35:38.478Z,39.81
2023-01-17T11:36:40.791Z,39.43
2023-01-17T11:37:52.413Z,39.42
2023-01-17T11:39:27.851Z,39.41
2023-01-17T11:41:16.400Z,39.68
2023-01-17T11:42:58.904Z,39.63
2023-01-17T11:44:03.668Z,39.43
2023-01-17T11:45:25.673Z,39.41
2023-01-17T11:46:29.744Z,39.20
2023-01-17T11:47:32.015Z,38.95
2023-01-17T11:48:40.010Z,39.02
2023-01-17T11:49:44.619Z,39.21
2023-01-17T11:50:56.674Z,39.30
2023-01-17T11:51:59.065Z,39.02
2023-01-17T11:53:25.083Z,39.20
2023-01-17T11:54:29.994Z,39.20
2023-01-17T11:55:32.290Z,39.27
2023-01-17T11:56:36.772Z,39.32
2023-01-17T11:57:39.060Z,39.30
2023-01-17T11:58:42.614Z,39.04
2023-01-17T11:59:45.992Z,39.00
2023-01-17T12:00:57.360Z,38.86
2023-01-17T12:02:01.269Z,38.84
2023-01-17T12:03:26.754Z,38.88
2023-01-17T12:05:08.954Z,39.03
2023-01-17T12:06:28.411Z,39.18
2023-01-17T12:07:45.044Z,38.89
2023-01-17T12:09:12.494Z,39.04
2023-01-17T12:10:32.789Z,38.87
2023-01-17T12:12:30.095Z,39.10
2023-01-17T12:14:02.181Z,39.17
2023-01-17T12:15:21.234Z,39.03
2023-01-17T12:17:11.243Z,39.24
2023-01-17T12:18:22.308Z,38.95
2023-01-17T12:19:24.453Z,38.75
2023-01-17T12:20:55.974Z,38.67
2023-01-17T12:22:16.551Z,38.76
2023-01-17T12:23:43.188Z,38.35
2023-01-17T12:25:20.655Z,38.55
2023-01-17T12:26:27.683Z,38.30
2023-01-17T12:27:43.493Z,38.28
2023-01-17T12:29:16.822Z,38.55
2023-01-17T12:30:29.635Z,38.46
2023-01-17T12:31:36.850Z,38.34
2023-01-17T12:33:20.920Z,38.75
2023-01-17T12:34:28.393Z,38.51
2023-01-17T12:35:55.751Z,38.54
2023-01-17T12:37:02.167Z,38.61
2023-01-17T12:38:18.050Z,38.58
2023-01-17T12:39:35.667Z,38.64
2023-01-17T12:41:10.362Z,38.79
2023-01-17T12:42:22.172Z,38.53
2023-01-17T12:43:35.401Z,38.69
2023-01-17T12:45:20.798Z,38.76
2023-01-17T12:46:34.081Z,38.67
2023-01-17T12:47:43.029Z,38.33
2023-01-17T12:48:45.249Z,38.48
2023-01-17T12:50:06.640Z,38.38
2023-01-17T12:51:17.954Z,38.46
2023-01-17T12:52:35.617Z,38.74
2023-01-17T12:54:13.293Z,38.53
2023-01-17T12:55:40.185Z,38.54
2023-01-17T12:57:14.400Z,38.59
2023-01-17T12:58:22.641Z,38.31
2023-01-17T12:59:51.223Z,38.40
2023-01-17T13:01:02.842Z,38.35
2023-01-17T13:02:18.703Z,38.44
2023-01-17T13:03:35.622Z,38.44
2023-01-17T13:04:59.046Z,38.66
2023-01-17T13:06:03.428Z,38.66
2023-01-17T13:07:45.661Z,38.78
2023-01-17T13:08:53.524Z,38.82
2023-01-17T13:10:03.734Z,38.75
2023-01-17T13:11:18.545Z,38.90
2023-01-17T13:12:22.733Z,39.04
2023-01-17T13:13:28.142Z,39.21
2023-01-17T13:14:30.667Z,39.32
2023-01-17T13:15:39.328Z,39.27
2023-01-17T13:17:02.726Z,39.56
2023-01-17T13:18:22.813Z,39.61
2023-01-17T13:19:44.459Z,39.49
2023-01-17T13:21:09.625Z,39.58
2023-01-17T13:22:18.094Z,39.44
2023-01-17T13:23:56.302Z,39.56
2023-01-17T13:25:31.972Z,39.77
2023-01-17T13:26:55.638Z,39.61
2023-01-17T13:28:36.950Z,39.60
2023-01-17T13:29:44.983Z,39.59
2023-01-17T13:31:03.538Z,39.75
2023-01-17T13:32:12.072Z,39.76
2023-01-17T13:33:15.425Z,39.78
2023-01-17T13:34:53.018Z,39.79
2023-01-17T13:35:58.203Z,39.83
2023-01-17T13:37:49.242Z,39.92
2023-01-17T13:39:29.808Z,39.95
2023-01-17T13:40:56.175Z,40.13
2023-01-17T13:42:37.895Z,40.07
2023-01-17T13:44:03.162Z,39.93
2023-01-17T13:45:18.031Z,39.87
2023-01-17T13:46:20.300Z,39.95
2023-01-17T13:47:42.832Z,39.99
2023-01-17T13:48:45.027Z,40.10
2023-01-17T13:49:54.090Z,40.13
2023-01-17T13:51:00.328Z,40.23
2023-01-17T13:52:28.683Z,40.18
2023-01-17T13:53:39.701Z,40.24
2023-01-17T13:55:02.227Z,40.39
2023-01-17T13:56:19.773Z,40.41
2023-01-17T13:57:40.201Z,40.39
2023-01-17T13:58:47.241Z,40.50
2023-01-17T13:59:50.139Z,40.48
2023-01-17T14:00:54.954Z,40.48
2023-01-17T14:01:58.771Z,40.44
2023-01-17T14:03:02.730Z,40.57
2023-01-17T14:04:07.287Z,40.61
2023-01-17T14:05:18.110Z,40.58
2023-01-17T14:06:36.380Z,40.55
2023-01-17T14:07:49.748Z,40.60
2023-01-17T14:08:52.892Z,40.59
2023-01-17T14:09:55.129Z,40.58
2023-01-17T14:11:07.415Z,40.74
2023-01-17T14:12:10.568Z,40.67
2023-01-17T14:13:36.087Z,40.65
2023-01-17T14:14:43.908Z,40.71
2023-01-17T14:15:51.054Z,40.73
2023-01-17T14:16:53.361Z,40.71
2023-01-17T14:17:58.959Z,40.71
2023-01-17T14:19:01.197Z,40.85
2023-01-17T14:20:06.082Z,40.72
2023-01-17T14:21:23.069Z,40.76
2023-01-17T14:22:39.239Z,40.85
2023-01-17T14:24:10.851Z,40.96
2023-01-17T14:25:15.064Z,40.99
2023-01-17T14:26:32.120Z,41.08
2023-01-17T14:27:35.112Z,41.07
2023-01-17T14:28:37.309Z,40.95
2023-01-17T14:29:53.804Z,41.10
2023-01-17T14:30:57.907Z,41.19
2023-01-17T14:32:02.249Z,41.22
2023-01-17T14:33:16.297Z,41.25
2023-01-17T14:34:21.930Z,41.24
2023-01-17T14:35:26.740Z,41.18
2023-01-17T14:36:32.763Z,41.24
2023-01-17T14:37:40.882Z,41.27
2023-01-17T14:38:44.760Z,41.38
2023-01-17T14:39:49.451Z,41.32
2023-01-17T14:40:57.629Z,41.35
2023-01-17T14:41:59.812Z,41.33
2023-01-17T14:43:15.030Z,41.32
2023-01-17T14:44:17.375Z,41.29
2023-01-17T14:45:26.314Z,41.31
2023-01-17T14:46:32.346Z,41.28
2023-01-17T14:47:41.327Z,41.44
2023-01-17T14:48:43.682Z,41.39
2023-01-17T14:49:45.928Z,41.40
2023-01-17T14:50:50.485Z,41.48
2023-01-17T14:52:06.592Z,41.56
2023-01-17T14:53:11.460Z,41.49
2023-01-17T14:54:21.565Z,41.66
2023-01-17T14:55:24.114Z,41.51
2023-01-17T14:56:28.737Z,41.57
2023-01-17T14:57:30.911Z,41.67